航空気象通報

ウインドサーファーのための航空気象通報による風予報です。

5/4-5/6の航空気象通報

2017年05月05日 00時51分27秒 | TAF
羽田空港
TAF RJTT 041105Z 0412/0518 19010KT 9999 FEW030
BECMG 0418/0420 26004KT
BECMG 0500/0503 14006KT
日本時間4日21時-5日03時:190度から10ノットの風
03-05時:風が変化
05-09時:260度から4ノットの風
09-12時:風が変化
12時-6日03時:140度から6ノットの風


静岡空港
TAF RJNS 041107Z 0412/0518 36004KT 9999 FEW010 BKN020
BECMG 0422/0500 13008KT
BECMG 0506/0509 26008KT
TEMPO 0512/0518 FEW004 BKN008
日本時間4日21時-5日07時:360度から4ノットの風
07-09時:風が変化
09-15時:130度から8ノットの風
15-18時:風が変化
18時-6日03時:260度から8ノットの風


福岡空港
TAF RJFF 041107Z 0412/0518 15005KT 9999 FEW030 BKN045
BECMG 0500/0503 32008KT
BECMG 0509/0512 15007KT
日本時間4日21時-5日09時:150度から5ノットの風
09-12時:風が変化
12-18時:320度から8ノットの風
18-21時:風が変化
21時-6日03時:150度から7ノットの風


那覇空港
TAF ROAH 041105Z 0412/0518 18006KT 9999 FEW008 BKN015
TEMPO 0415/0421 FEW004 BKN006
TEMPO 0515/0518 FEW006 BKN008
日本時間4日21時-6日03時:180度から6ノットの風


石垣空港
TAF ROIG 041108Z 0412/0518 20006KT 9999 FEW008 BKN020
TEMPO 0512/0518 FEW006 BKN008
日本時間4日21時-6日03時:200度から6ノットの風


マウイのカフルイ空港
PHOG 031120Z 0312/0412 04005KT P6SM FEW050
FM032100 04012G20KT P6SM SCT060
FM040500 04007KT P6SM FEW050 AMD LTD TO VIS AND WIND TIL 031600
ハワイ時間4日02-11時:040度から5ノットの風
11-19時:040度から12ノット、突風20ノット
19時-5日02時:040度から7ノットの風


サイパン空港
TAF PGSN 041120Z 0412/0512 07014KT P6SM VCSH SCT025 SCT040
マリアナ時間4日22時-5日22時:070度から14ノットの風

ジャンル:
お天気
コメント   この記事についてブログを書く
« 5/3-5/5の航空気象通報 | トップ | 5/5-5/7の航空気象通報 »
最近の画像もっと見る

コメントを投稿

ブログ作成者から承認されるまでコメントは反映されません。

TAF」カテゴリの最新記事